Time;durP1;ratioP1;P1;durP2;ratioP2;P2;SDS_P1;SDS_P2;PMS_P1;PMS_P2;Temp;Humidity;BMP_temperature;BMP_pressure;BME280_temperature;BME280_humidity;BME280_pressure;Samples;Min_cycle;Max_cycle;Signal;HPM_P1;HPM_P2
2023/07/14 00:00:39;;;;;;;2.95;0.70;;;17.80;99.90;;;;;;4952464;29;20143;-75
2023/07/14 00:03:06;;;;;;;2.13;0.50;;;17.70;99.90;;;;;;4951142;29;20043;-75
2023/07/14 00:05:39;;;;;;;3.72;1.13;;;17.60;99.90;;;;;;4937079;29;20039;-75
2023/07/14 00:08:15;;;;;;;2.33;0.52;;;17.60;99.90;;;;;;4952002;29;20040;-75
2023/07/14 00:10:41;;;;;;;3.08;0.95;;;17.70;99.90;;;;;;4951523;29;20458;-74
2023/07/14 00:13:08;;;;;;;1.92;0.60;;;17.80;99.90;;;;;;4953407;29;20383;-75
2023/07/14 00:15:37;;;;;;;5.00;0.82;;;17.90;99.90;;;;;;4952125;29;20035;-76
2023/07/14 00:18:24;;;;;;;5.55;1.08;;;17.90;99.90;;;;;;4948843;29;20051;-75
2023/07/14 00:20:51;;;;;;;1.45;0.82;;;17.70;99.90;;;;;;4951554;29;20035;-75
2023/07/14 00:23:17;;;;;;;1.83;0.98;;;17.70;99.90;;;;;;4953328;29;20455;-76
2023/07/14 00:25:45;;;;;;;3.90;0.93;;;17.70;99.90;;;;;;4951747;29;20054;-75
2023/07/14 00:28:15;;;;;;;1.85;0.77;;;17.90;99.90;;;;;;4953864;29;20043;-74
2023/07/14 00:30:42;;;;;;;0.80;0.77;;;17.90;99.90;;;;;;4951842;29;20042;-75
2023/07/14 00:33:13;;;;;;;2.75;0.63;;;17.90;99.90;;;;;;4953311;29;20043;-75
2023/07/14 00:35:41;;;;;;;3.78;0.55;;;17.90;99.90;;;;;;4950269;29;20035;-74
2023/07/14 00:38:07;;;;;;;2.60;0.80;;;17.70;99.90;;;;;;4937963;28;20447;-76
2023/07/14 00:40:47;;;;;;;8.30;0.90;;;17.60;99.90;;;;;;4951904;29;20346;-75
2023/07/14 00:43:21;;;;;;;1.42;0.65;;;17.60;99.90;;;;;;4951788;28;20207;-75
2023/07/14 00:45:49;;;;;;;3.15;0.80;;;17.60;99.90;;;;;;4951270;29;20035;-75
2023/07/14 00:48:19;;;;;;;3.30;0.80;;;17.60;99.90;;;;;;4934998;29;20234;-76
2023/07/14 00:50:54;;;;;;;1.65;0.82;;;17.60;99.90;;;;;;4953204;29;20042;-76
2023/07/14 00:53:26;;;;;;;2.55;0.68;;;17.60;99.90;;;;;;4952272;29;20032;-74
2023/07/14 00:56:10;;;;;;;3.25;1.25;;;17.60;99.90;;;;;;4953699;29;20585;-76
2023/07/14 00:58:38;;;;;;;1.95;0.73;;;17.40;99.90;;;;;;4953206;29;20053;-76
2023/07/14 01:01:10;;;;;;;4.32;0.95;;;17.30;99.90;;;;;;4959992;29;20027;-76
2023/07/14 01:03:41;;;;;;;3.03;0.93;;;17.30;99.90;;;;;;4956368;29;20042;-76
2023/07/14 01:06:16;;;;;;;1.92;0.70;;;17.30;99.90;;;;;;4958665;29;20157;-76
2023/07/14 01:08:51;;;;;;;3.03;0.60;;;17.30;99.90;;;;;;4953769;29;20050;-76
2023/07/14 01:11:19;;;;;;;3.70;0.95;;;17.30;99.90;;;;;;4932880;29;20043;-75
2023/07/14 01:13:46;;;;;;;1.67;0.77;;;17.40;99.90;;;;;;4952455;29;20497;-76
2023/07/14 01:16:17;;;;;;;1.73;0.90;;;17.40;99.90;;;;;;4952378;29;20490;-76
2023/07/14 01:18:46;;;;;;;2.40;1.05;;;17.30;99.90;;;;;;4952270;29;20044;-74
2023/07/14 01:21:13;;;;;;;3.08;0.98;;;17.20;99.90;;;;;;4933179;29;20417;-75
2023/07/14 01:24:00;;;;;;;4.45;1.10;;;17.20;99.90;;;;;;4952175;29;20090;-74
2023/07/14 01:26:51;;;;;;;2.58;0.65;;;17.10;99.90;;;;;;4948125;29;20058;-75
2023/07/14 01:29:18;;;;;;;;;;;17.00;99.90;;;;;;4945771;29;20050;-75
2023/07/14 01:31:44;;;;;;;1.67;1.17;;;17.00;99.90;;;;;;4951160;29;19910;-74
2023/07/14 01:34:11;;;;;;;2.08;0.50;;;16.80;99.90;;;;;;4951958;29;20035;-76
2023/07/14 01:36:37;;;;;;;3.00;0.93;;;16.80;99.90;;;;;;4950987;29;20474;-75
2023/07/14 01:39:03;;;;;;;4.22;1.40;;;16.80;99.90;;;;;;4949892;29;20047;-77
2023/07/14 01:41:30;;;;;;;2.38;0.73;;;16.80;99.90;;;;;;4951186;29;20471;-76
2023/07/14 01:44:03;;;;;;;7.13;0.95;;;16.50;99.90;;;;;;4950420;29;20043;-78
2023/07/14 01:46:30;;;;;;;7.30;1.48;;;16.30;1.00;;;;;;4951916;29;20047;-76
2023/07/14 01:48:59;;;;;;;4.47;1.42;;;16.40;1.00;;;;;;4951951;29;20039;-76
2023/07/14 01:51:30;;;;;;;2.38;0.88;;;16.30;1.00;;;;;;4951466;29;20050;-76
2023/07/14 01:54:17;;;;;;;1.48;0.60;;;16.20;1.00;;;;;;4952905;29;20036;-76
2023/07/14 01:56:44;;;;;;;3.92;1.05;;;16.20;1.00;;;;;;4950468;29;20035;-75
2023/07/14 01:59:16;;;;;;;3.17;1.15;;;16.10;1.00;;;;;;4932865;29;20051;-75
2023/07/14 02:01:46;;;;;;;3.33;1.20;;;15.90;1.00;;;;;;4950950;29;20039;-75
2023/07/14 02:04:20;;;;;;;3.03;0.80;;;15.80;1.00;;;;;;4951883;29;20042;-75
2023/07/14 02:06:47;;;;;;;2.13;0.93;;;15.90;1.00;;;;;;4949362;29;20038;-76
2023/07/14 02:09:20;;;;;;;3.13;0.98;;;15.80;1.00;;;;;;4931113;29;20063;-76
2023/07/14 02:11:55;;;;;;;1.75;1.00;;;15.80;1.00;;;;;;4952585;29;20431;-76
2023/07/14 02:14:24;;;;;;;1.58;0.80;;;15.70;1.00;;;;;;4951299;29;20335;-76
2023/07/14 02:16:51;;;;;;;4.10;1.38;;;15.80;1.00;;;;;;4954652;29;20038;-76
2023/07/14 02:19:24;;;;;;;2.92;1.38;;;15.70;1.00;;;;;;4949150;29;20232;-76
2023/07/14 02:21:54;;;;;;;2.08;0.80;;;15.60;1.00;;;;;;4916110;29;20050;-74
2023/07/14 02:24:23;;;;;;;7.53;1.00;;;15.50;1.00;;;;;;4948527;29;20047;-75
2023/07/14 02:27:03;;;;;;;1.80;0.90;;;15.40;1.00;;;;;;4934034;29;20055;-75
2023/07/14 02:29:30;;;;;;;3.05;1.30;;;15.40;1.00;;;;;;4947262;29;20047;-75
2023/07/14 02:32:12;;;;;;;4.15;1.17;;;15.30;1.00;;;;;;4951321;29;20042;-75
2023/07/14 02:34:43;;;;;;;3.80;1.00;;;15.30;1.00;;;;;;4950696;29;20043;-74
2023/07/14 02:37:40;;;;;;;5.65;1.00;;;15.20;1.00;;;;;;4932979;29;20047;-75
2023/07/14 02:40:12;;;;;;;1.92;1.00;;;15.30;1.00;;;;;;4947523;29;20548;-75
2023/07/14 02:42:39;;;;;;;1.95;1.02;;;15.30;1.00;;;;;;4951769;29;20054;-75
2023/07/14 02:45:06;;;;;;;2.78;1.60;;;15.30;1.00;;;;;;4950172;29;20455;-75
2023/07/14 02:47:36;;;;;;;3.90;1.13;;;15.20;1.00;;;;;;4952041;29;20031;-75
2023/07/14 02:50:03;;;;;;;1.95;0.85;;;15.10;1.00;;;;;;4943552;29;20357;-75
2023/07/14 02:52:29;;;;;;;3.00;1.13;;;15.00;1.00;;;;;;4948639;29;20043;-75
2023/07/14 02:54:55;;;;;;;2.08;0.80;;;15.10;1.00;;;;;;4933072;29;20046;-75
2023/07/14 02:57:22;;;;;;;5.05;1.05;;;15.00;1.00;;;;;;4934428;29;20402;-75
2023/07/14 02:59:48;;;;;;;2.25;0.60;;;14.90;1.00;;;;;;4950884;29;20417;-75
2023/07/14 03:02:14;;;;;;;1.08;0.82;;;14.80;1.90;;;;;;4933061;29;20044;-75
2023/07/14 03:04:40;;;;;;;3.67;1.27;;;14.90;1.00;;;;;;4948626;29;20042;-76
2023/07/14 03:07:06;;;;;;;1.92;1.17;;;14.80;1.00;;;;;;4949834;29;20027;-76
2023/07/14 03:09:33;;;;;;;2.58;0.93;;;14.70;1.00;;;;;;4951458;29;20035;-75
2023/07/14 03:11:59;;;;;;;1.40;0.88;;;14.60;2.20;;;;;;4932024;29;20047;-75
2023/07/14 03:14:25;;;;;;;4.47;1.08;;;14.50;11.90;;;;;;4933485;29;20395;-75
2023/07/14 03:16:52;;;;;;;2.03;0.90;;;14.50;26.00;;;;;;4931450;29;20043;-76
2023/07/14 03:19:18;;;;;;;3.47;0.88;;;14.40;34.70;;;;;;4951135;29;20051;-76
2023/07/14 03:21:44;;;;;;;3.78;0.93;;;14.30;57.20;;;;;;4932333;29;20493;-75
2023/07/14 03:24:11;;;;;;;2.38;1.08;;;14.30;86.40;;;;;;4951747;29;20043;-76
2023/07/14 03:26:37;;;;;;;2.25;0.90;;;14.40;84.00;;;;;;4955043;29;20414;-75
2023/07/14 03:29:04;;;;;;;2.65;0.98;;;14.40;57.20;;;;;;4953307;29;20043;-76
2023/07/14 03:31:30;;;;;;;4.43;1.38;;;14.40;49.60;;;;;;4935792;29;20043;-75
2023/07/14 03:33:56;;;;;;;2.47;1.02;;;14.40;48.20;;;;;;4950275;29;20046;-76
2023/07/14 03:36:23;;;;;;;1.73;1.00;;;14.40;47.00;;;;;;4937150;29;20035;-75
2023/07/14 03:39:21;;;;;;;3.42;1.45;;;14.40;50.30;;;;;;4935378;29;20062;-75
2023/07/14 03:41:48;;;;;;;3.03;1.40;;;14.40;42.70;;;;;;4953848;29;20035;-75
2023/07/14 03:44:15;;;;;;;2.75;1.52;;;14.30;54.30;;;;;;4954818;29;20490;-76
2023/07/14 03:46:41;;;;;;;4.35;1.50;;;14.20;69.30;;;;;;4954271;29;20035;-76
2023/07/14 03:49:10;;;;;;;3.10;1.17;;;14.20;63.00;;;;;;4952373;29;20043;-76
2023/07/14 03:51:36;;;;;;;2.90;1.17;;;14.20;59.60;;;;;;4951961;29;20039;-76
2023/07/14 03:54:02;;;;;;;2.13;1.10;;;14.10;68.10;;;;;;4953175;29;20042;-75
2023/07/14 03:56:28;;;;;;;2.15;0.77;;;14.10;85.20;;;;;;4953336;29;20459;-75
2023/07/14 03:58:55;;;;;;;2.35;1.00;;;14.10;88.40;;;;;;4951699;29;20051;-75
2023/07/14 04:01:22;;;;;;;2.53;1.00;;;14.20;88.80;;;;;;4948812;29;20051;-75
2023/07/14 04:03:49;;;;;;;4.90;1.77;;;14.30;79.00;;;;;;4954355;29;20394;-75
2023/07/14 04:06:15;;;;;;;6.97;1.20;;;14.40;79.10;;;;;;4934750;29;20054;-76
2023/07/14 04:08:43;;;;;;;1.42;0.90;;;14.40;73.50;;;;;;4951361;29;20472;-75
2023/07/14 04:11:11;;;;;;;2.28;1.13;;;14.50;50.30;;;;;;4950689;29;20040;-75
2023/07/14 04:13:37;;;;;;;2.55;1.50;;;14.60;29.70;;;;;;4953182;29;20055;-76
2023/07/14 04:16:07;;;;;;;5.38;1.55;;;14.60;34.00;;;;;;4935076;29;20054;-78
2023/07/14 04:18:34;;;;;;;3.80;1.42;;;14.70;39.80;;;;;;4952054;29;20063;-77
2023/07/14 04:21:09;;;;;;;2.17;0.70;;;14.80;35.00;;;;;;4952492;29;20394;-77
2023/07/14 04:23:35;;;;;;;1.15;0.68;;;14.90;20.40;;;;;;4934575;29;20066;-76
2023/07/14 04:26:02;;;;;;;1.90;1.00;;;15.10;25.40;;;;;;4951391;29;20055;-76
2023/07/14 04:28:28;;;;;;;2.28;1.17;;;15.30;1.00;;;;;;4953481;29;20044;-76
2023/07/14 04:30:56;;;;;;;7.70;1.15;;;15.40;1.00;;;;;;4951355;29;20027;-80
2023/07/14 04:33:23;;;;;;;3.60;1.08;;;15.50;1.00;;;;;;4942775;28;20038;-77
2023/07/14 04:35:51;;;;;;;2.35;1.20;;;15.60;1.00;;;;;;4951615;29;20054;-76
2023/07/14 04:38:17;;;;;;;2.53;0.77;;;15.60;1.00;;;;;;4950045;29;20053;-76
2023/07/14 04:40:44;;;;;;;3.60;1.52;;;15.70;1.00;;;;;;4935255;29;20043;-76
2023/07/14 04:43:11;;;;;;;6.10;1.13;;;15.80;1.00;;;;;;4949511;29;20040;-75
2023/07/14 04:45:43;;;;;;;2.55;0.88;;;15.90;1.00;;;;;;4953131;29;20031;-76
2023/07/14 04:48:14;;;;;;;6.28;1.23;;;16.10;1.00;;;;;;4951561;29;20043;-76
2023/07/14 04:50:40;;;;;;;1.77;0.82;;;16.30;1.00;;;;;;4947812;29;20039;-76
2023/07/14 04:53:06;;;;;;;1.88;0.77;;;16.30;1.00;;;;;;4950085;29;20046;-83
2023/07/14 04:55:37;;;;;;;2.65;1.02;;;16.40;1.00;;;;;;4925643;29;20043;-76
2023/07/14 04:58:04;;;;;;;3.92;1.73;;;16.40;1.00;;;;;;4949109;28;20059;-76
2023/07/14 05:00:31;;;;;;;1.90;1.20;;;16.50;1.00;;;;;;4952339;29;20067;-77
2023/07/14 05:02:57;;;;;;;2.60;1.00;;;16.70;1.00;;;;;;4949049;29;20035;-77
2023/07/14 05:05:25;;;;;;;1.40;0.85;;;16.80;1.00;;;;;;4950192;29;20032;-78
2023/07/14 05:07:52;;;;;;;1.73;0.90;;;16.80;1.00;;;;;;4953054;29;20039;-78
2023/07/14 05:10:20;;;;;;;2.25;1.20;;;16.90;1.00;;;;;;4951181;29;20043;-77
2023/07/14 05:12:51;;;;;;;3.70;1.33;;;17.00;99.90;;;;;;4947141;29;20039;-77
2023/07/14 05:15:18;;;;;;;2.53;0.85;;;17.00;99.90;;;;;;4950733;29;20108;-77
2023/07/14 05:17:45;;;;;;;3.47;1.17;;;16.90;1.00;;;;;;4953210;29;20031;-77
2023/07/14 05:20:14;;;;;;;2.67;1.15;;;17.00;99.90;;;;;;4950134;29;20043;-78
2023/07/14 05:22:43;;;;;;;1.83;1.00;;;17.10;99.90;;;;;;4946146;29;20035;-77
2023/07/14 05:25:10;;;;;;;3.15;1.40;;;17.20;99.90;;;;;;4922621;29;20043;-79
2023/07/14 05:27:38;;;;;;;3.13;0.80;;;17.30;99.90;;;;;;4949757;29;20059;-76
2023/07/14 05:30:06;;;;;;;2.10;0.70;;;17.50;99.90;;;;;;4953165;29;20038;-76
2023/07/14 05:32:32;;;;;;;4.43;1.23;;;17.50;99.90;;;;;;4951104;29;20031;-77
2023/07/14 05:34:59;;;;;;;2.60;1.15;;;17.60;99.90;;;;;;4952300;29;20035;-77
2023/07/14 05:37:25;;;;;;;3.83;1.30;;;17.60;99.90;;;;;;4950696;29;20046;-77
2023/07/14 05:39:51;;;;;;;5.68;1.60;;;17.70;99.90;;;;;;4947732;29;20040;-77
2023/07/14 05:42:17;;;;;;;3.20;1.77;;;17.70;99.90;;;;;;4949454;29;20047;-79
2023/07/14 05:44:43;;;;;;;2.97;1.02;;;17.70;99.90;;;;;;4935063;29;20043;-79
2023/07/14 05:47:09;;;;;;;2.78;1.17;;;17.80;99.90;;;;;;4952731;29;20479;-78
2023/07/14 05:49:36;;;;;;;2.95;1.27;;;17.90;99.90;;;;;;4966788;29;20043;-77
2023/07/14 05:52:03;;;;;;;3.05;1.42;;;17.90;99.90;;;;;;4948087;29;20044;-77
2023/07/14 05:54:29;;;;;;;3.10;0.90;;;18.00;99.90;;;;;;4965829;29;20033;-77
2023/07/14 05:56:55;;;;;;;2.53;1.10;;;18.00;99.90;;;;;;4967756;29;20394;-77
2023/07/14 05:59:22;;;;;;;2.92;1.45;;;18.20;99.90;;;;;;4952859;29;20058;-78
2023/07/14 06:01:48;;;;;;;3.53;1.50;;;18.30;99.90;;;;;;4932910;29;20403;-77
2023/07/14 06:04:15;;;;;;;3.08;0.80;;;18.50;99.90;;;;;;4951433;29;20031;-78
2023/07/14 06:06:42;;;;;;;3.97;0.90;;;19.10;99.90;;;;;;4950987;29;20027;-77
2023/07/14 06:09:09;;;;;;;5.30;1.02;;;19.90;99.90;;;;;;4951148;29;20031;-79
2023/07/14 06:11:36;;;;;;;3.15;1.38;;;20.30;99.90;;;;;;4948103;29;20458;-79
2023/07/14 06:14:02;;;;;;;3.60;1.27;;;20.50;99.90;;;;;;4952793;29;20079;-78
2023/07/14 06:16:28;;;;;;;3.10;1.10;;;20.70;99.90;;;;;;4948562;29;20027;-79
2023/07/14 06:18:55;;;;;;;4.07;1.30;;;20.60;98.10;;;;;;4932589;29;20038;-79
2023/07/14 06:21:21;;;;;;;3.53;1.92;;;20.40;99.70;;;;;;4931553;29;20399;-78
2023/07/14 06:23:47;;;;;;;3.88;1.10;;;20.30;99.90;;;;;;4928657;29;20039;-78
2023/07/14 06:26:14;;;;;;;5.65;1.40;;;20.10;98.50;;;;;;4950311;29;20414;-78
2023/07/14 06:28:42;;;;;;;3.72;2.17;;;20.10;99.50;;;;;;4950298;29;20035;-78
2023/07/14 06:31:12;;;;;;;3.30;1.30;;;20.50;93.50;;;;;;4952594;29;20046;-79
2023/07/14 06:33:38;;;;;;;3.70;1.02;;;21.20;95.30;;;;;;4948755;29;20505;-78
2023/07/14 06:36:05;;;;;;;1.70;1.10;;;21.40;1.00;;;;;;4951901;29;20035;-79
2023/07/14 06:38:31;;;;;;;3.67;1.48;;;20.90;1.00;;;;;;4951748;29;20038;-79
2023/07/14 06:41:01;;;;;;;2.90;1.60;;;21.00;1.00;;;;;;4950516;29;20064;-77
2023/07/14 06:43:29;;;;;;;9.10;1.83;;;21.00;1.00;;;;;;4949268;29;20442;-78
2023/07/14 06:45:55;;;;;;;5.28;1.15;;;21.00;1.00;;;;;;4932860;29;20040;-78
2023/07/14 06:48:22;;;;;;;4.28;1.20;;;20.80;1.00;;;;;;4951245;29;20036;-79
2023/07/14 06:50:49;;;;;;;8.50;1.55;;;20.90;1.00;;;;;;4948511;29;20081;-78
2023/07/14 06:53:15;;;;;;;4.28;1.48;;;21.10;1.00;;;;;;4950186;29;20031;-79
2023/07/14 06:55:43;;;;;;;3.58;1.73;;;21.10;1.00;;;;;;4949861;28;20031;-77
2023/07/14 06:58:09;;;;;;;2.75;1.25;;;21.50;1.00;;;;;;4954644;29;20048;-76
2023/07/14 07:00:36;;;;;;;4.93;1.73;;;21.90;1.00;;;;;;4955161;29;20039;-80
2023/07/14 07:03:03;;;;;;;7.65;1.50;;;22.80;1.00;;;;;;4949921;29;20031;-80
2023/07/14 07:05:34;;;;;;;6.68;1.13;;;23.40;99.90;;;;;;4948545;29;20558;-80
2023/07/14 07:08:00;;;;;;;2.55;1.13;;;23.70;99.90;;;;;;4951727;29;20058;-80
2023/07/14 07:10:27;;;;;;;4.82;1.38;;;24.20;99.90;;;;;;4954581;29;20422;-80
2023/07/14 07:12:54;;;;;;;2.60;0.90;;;24.40;99.90;;;;;;4945403;29;20047;-80
2023/07/14 07:15:20;;;;;;;3.58;1.00;;;24.90;99.90;;;;;;4955908;29;20034;-82
2023/07/14 07:17:46;;;;;;;4.88;1.50;;;24.50;99.90;;;;;;4953447;29;20035;-81
2023/07/14 07:20:13;;;;;;;2.40;0.98;;;24.20;99.90;;;;;;4954950;29;20047;-82
2023/07/14 07:22:41;;;;;;;3.35;1.00;;;23.90;99.90;;;;;;4954157;29;20036;-80
2023/07/14 07:25:10;;;;;;;2.47;0.82;;;23.70;99.90;;;;;;4934964;29;20071;-84
2023/07/14 07:27:36;;;;;;;5.82;0.93;;;23.60;99.90;;;;;;4953664;29;20051;-79
2023/07/14 07:30:03;;;;;;;2.35;1.30;;;24.10;99.90;;;;;;4955220;29;20497;-80
2023/07/14 07:32:31;;;;;;;2.75;1.08;;;24.10;99.90;;;;;;4950361;29;20429;-80
2023/07/14 07:34:59;;;;;;;2.08;0.90;;;23.50;99.90;;;;;;4951134;29;20032;-79
2023/07/14 07:37:27;;;;;;;5.80;1.40;;;23.00;99.90;;;;;;4951052;29;20034;-80
2023/07/14 07:39:58;;;;;;;2.47;0.93;;;23.50;99.90;;;;;;4952356;29;20047;-80
2023/07/14 07:42:24;;;;;;;4.30;0.98;;;24.20;99.90;;;;;;4933504;29;20032;-80
2023/07/14 07:44:50;;;;;;;3.75;0.95;;;24.70;99.90;;;;;;4952700;29;20035;-80
2023/07/14 07:47:16;;;;;;;6.25;1.10;;;24.70;99.90;;;;;;4951923;29;20036;-81
2023/07/14 07:49:43;;;;;;;1.35;0.70;;;24.50;99.90;;;;;;4954471;29;20359;-82
2023/07/14 07:52:11;;;;;;;2.38;0.93;;;24.30;99.90;;;;;;4952874;29;20031;-84
2023/07/14 07:54:38;;;;;;;4.28;1.33;;;24.00;99.90;;;;;;4953665;29;20514;-80
2023/07/14 07:57:06;;;;;;;3.47;1.00;;;24.10;99.90;;;;;;4933038;29;20031;-82
2023/07/14 07:59:33;;;;;;;3.58;1.17;;;24.80;99.90;;;;;;4930724;29;20043;-78
2023/07/14 08:02:00;;;;;;;4.78;0.80;;;25.40;99.90;;;;;;4953642;29;20035;-77
2023/07/14 08:04:26;;;;;;;1.88;1.00;;;25.20;99.90;;;;;;4950869;29;20054;-78
2023/07/14 08:06:53;;;;;;;3.75;1.17;;;25.80;99.90;;;;;;4949068;28;20043;-78
2023/07/14 08:09:20;;;;;;;2.08;0.68;;;25.70;99.90;;;;;;4954278;29;20395;-81
2023/07/14 08:11:47;;;;;;;3.60;1.02;;;25.70;99.90;;;;;;4951247;29;20058;-79
2023/07/14 08:14:17;;;;;;;0.98;0.70;;;26.00;99.90;;;;;;4950343;29;20046;-78
2023/07/14 08:16:44;;;;;;;;;;;25.90;99.90;;;;;;4933385;29;20035;-77
2023/07/14 08:19:10;;;;;;;1.77;0.80;;;25.60;99.90;;;;;;4951555;29;19910;-79
2023/07/14 08:21:40;;;;;;;4.00;0.70;;;25.60;99.90;;;;;;4950805;29;20465;-77
2023/07/14 08:24:07;;;;;;;1.85;0.77;;;25.40;99.90;;;;;;4951020;29;20067;-77
2023/07/14 08:26:35;;;;;;;3.08;0.95;;;26.20;99.90;;;;;;4952614;29;20051;-77
2023/07/14 08:29:03;;;;;;;3.10;0.98;;;26.90;99.90;;;;;;4953457;29;20062;-77
2023/07/14 08:31:29;;;;;;;4.28;0.80;;;27.50;99.90;;;;;;4952075;29;20565;-76
2023/07/14 08:33:56;;;;;;;2.63;0.90;;;27.30;99.90;;;;;;4952294;29;20038;-77
2023/07/14 08:36:23;;;;;;;2.17;0.70;;;27.30;99.90;;;;;;4953224;29;20054;-77
2023/07/14 08:38:50;;;;;;;6.80;1.17;;;27.20;99.90;;;;;;4934982;29;20051;-77
2023/07/14 08:41:20;;;;;;;2.05;0.63;;;26.10;99.90;;;;;;4951497;29;20035;-77
2023/07/14 08:44:03;;;;;;;3.42;0.85;;;26.10;99.90;;;;;;4949156;29;20035;-76
2023/07/14 08:46:48;;;;;;;1.60;0.80;;;27.10;99.90;;;;;;4950586;29;20050;-78
2023/07/14 08:49:25;;;;;;;1.13;0.50;;;27.80;99.90;;;;;;4951376;29;20027;-76
2023/07/14 08:51:55;;;;;;;3.17;0.77;;;27.80;99.90;;;;;;4952465;29;20042;-77
2023/07/14 08:54:25;;;;;;;3.65;1.05;;;28.00;99.90;;;;;;4950739;29;20040;-78
2023/07/14 08:56:52;;;;;;;5.63;1.00;;;27.50;99.90;;;;;;4935034;29;20046;-77
2023/07/14 08:59:31;;;;;;;3.40;0.80;;;27.20;99.90;;;;;;4949418;29;20082;-75
2023/07/14 09:01:59;;;;;;;5.80;1.30;;;27.30;99.90;;;;;;4949755;29;20059;-81
2023/07/14 09:04:30;;;;;;;2.22;0.88;;;26.90;99.90;;;;;;4951554;29;20043;-77
2023/07/14 09:06:57;;;;;;;6.25;1.20;;;27.20;99.90;;;;;;4947878;29;20027;-80
2023/07/14 09:09:33;;;;;;;2.10;0.77;;;27.50;99.90;;;;;;4953100;29;20035;-78
2023/07/14 09:12:11;;;;;;;1.63;0.75;;;28.10;99.90;;;;;;4949595;29;20031;-76
2023/07/14 09:14:54;;;;;;;3.97;0.80;;;28.00;99.90;;;;;;4951890;29;20141;-78
2023/07/14 09:17:58;;;;;;;1.75;0.90;;;28.10;99.90;;;;;;4949176;29;20062;-77
2023/07/14 09:21:00;;;;;;;2.15;0.80;;;28.50;99.00;;;;;;4951282;28;20390;-77
2023/07/14 09:23:57;;;;;;;1.35;0.60;;;28.70;99.90;;;;;;4955434;29;20359;-78
2023/07/14 09:26:26;;;;;;;3.72;0.73;;;28.20;99.90;;;;;;4946818;29;20529;-78
2023/07/14 09:28:52;;;;;;;2.20;0.90;;;28.10;99.90;;;;;;4951972;29;20058;-79
2023/07/14 09:31:42;;;;;;;3.85;0.93;;;28.10;99.90;;;;;;4934113;29;20299;-78
2023/07/14 09:34:32;;;;;;;2.85;1.48;;;28.30;99.90;;;;;;4948859;29;20039;-77
2023/07/14 09:37:00;;;;;;;5.53;0.90;;;28.80;99.90;;;;;;4949999;29;20038;-78
2023/07/14 09:39:37;;;;;;;1.95;0.80;;;29.00;96.90;;;;;;4932830;29;20039;-79
2023/07/14 09:42:13;;;;;;;3.50;0.90;;;28.70;93.50;;;;;;4948244;29;20039;-79
2023/07/14 09:44:39;;;;;;;4.22;0.95;;;28.30;97.60;;;;;;4947501;29;20035;-75
2023/07/14 09:47:06;;;;;;;2.70;1.10;;;28.10;99.50;;;;;;4952498;29;20043;-79
2023/07/14 09:49:46;;;;;;;4.18;1.15;;;27.80;99.90;;;;;;4951634;29;20375;-77
2023/07/14 09:52:28;;;;;;;2.35;1.10;;;27.90;99.90;;;;;;4951185;29;20081;-84
2023/07/14 09:54:59;;;;;;;1.38;0.93;;;28.00;99.90;;;;;;4933533;29;20035;-77
2023/07/14 09:57:32;;;;;;;2.40;0.60;;;28.20;99.90;;;;;;4949992;29;20043;-76
2023/07/14 10:00:13;;;;;;;3.60;0.60;;;27.80;99.90;;;;;;4933918;29;20044;-79
2023/07/14 10:02:40;;;;;;;1.20;0.65;;;27.60;99.90;;;;;;4948914;29;20394;-80
2023/07/14 10:05:34;;;;;;;3.60;1.00;;;27.70;97.80;;;;;;4952709;29;20431;-79
2023/07/14 10:08:03;;;;;;;2.13;1.02;;;27.70;97.70;;;;;;4923671;29;20047;-80
2023/07/14 10:10:30;;;;;;;3.13;0.80;;;27.70;99.10;;;;;;4951433;29;20038;-77
2023/07/14 10:12:56;;;;;;;1.67;0.40;;;28.00;99.90;;;;;;4951794;29;20470;-78
2023/07/14 10:15:32;;;;;;;2.45;0.95;;;28.00;99.90;;;;;;4951121;29;20713;-75
2023/07/14 10:18:13;;;;;;;3.38;0.70;;;27.70;99.90;;;;;;4951030;29;20046;-76
2023/07/14 10:20:39;;;;;;;1.23;0.57;;;27.80;99.90;;;;;;4951096;29;20062;-75
2023/07/14 10:23:15;;;;;;;4.10;1.08;;;28.20;98.70;;;;;;4948687;29;20043;-78
2023/07/14 10:25:49;;;;;;;2.05;0.90;;;28.00;99.90;;;;;;4949613;29;20027;-77
2023/07/14 10:28:23;;;;;;;3.45;1.08;;;27.80;99.90;;;;;;4948700;29;20046;-79
2023/07/14 10:31:10;;;;;;;7.03;1.15;;;28.00;99.90;;;;;;4951147;29;20427;-79
2023/07/14 10:34:07;;;;;;;3.05;0.93;;;28.00;97.90;;;;;;4948342;29;20046;-78
2023/07/14 10:36:37;;;;;;;1.90;0.88;;;28.00;97.00;;;;;;4948435;29;20038;-78
2023/07/14 10:39:19;;;;;;;5.22;0.77;;;28.20;99.90;;;;;;4952594;29;20027;-76
2023/07/14 10:41:46;;;;;;;3.97;0.65;;;27.70;99.90;;;;;;4950309;29;20039;-75
2023/07/14 10:44:30;;;;;;;2.78;1.08;;;27.80;99.90;;;;;;4933140;29;20031;-79
2023/07/14 10:47:09;;;;;;;4.50;0.88;;;28.20;99.90;;;;;;4952314;29;20039;-77
2023/07/14 10:49:40;;;;;;;2.53;1.08;;;28.50;99.90;;;;;;4950034;29;20031;-77
2023/07/14 10:52:14;;;;;;;2.17;0.70;;;28.40;99.90;;;;;;4950090;29;20061;-77
2023/07/14 10:55:00;;;;;;;2.72;0.88;;;28.30;99.90;;;;;;4954454;29;20031;-76
2023/07/14 10:57:34;;;;;;;3.20;0.80;;;27.80;99.90;;;;;;4950515;29;20399;-77
2023/07/14 11:00:23;;;;;;;4.45;1.02;;;27.70;99.90;;;;;;4951369;29;20039;-78
2023/07/14 11:03:26;;;;;;;1.77;0.73;;;27.30;99.90;;;;;;4950504;29;20035;-76
2023/07/14 11:06:10;;;;;;;2.03;0.90;;;27.00;99.90;;;;;;4951898;29;20081;-77
2023/07/14 11:08:37;;;;;;;2.58;1.02;;;27.20;99.90;;;;;;4950394;29;20035;-78
2023/07/14 11:11:15;;;;;;;3.67;0.90;;;27.60;99.90;;;;;;4949685;29;20039;-78
2023/07/14 11:13:53;;;;;;;3.47;0.95;;;27.40;99.90;;;;;;4950054;29;20038;-79
2023/07/14 11:16:32;;;;;;;3.20;1.27;;;27.40;99.90;;;;;;4949670;29;20046;-77
2023/07/14 11:18:58;;;;;;;3.85;0.88;;;27.20;99.90;;;;;;4944457;29;20043;-77
2023/07/14 11:21:36;;;;;;;2.60;1.10;;;27.60;99.90;;;;;;4951849;29;20040;-77
2023/07/14 11:24:17;;;;;;;4.88;1.45;;;28.30;99.90;;;;;;4950027;29;20174;-78
2023/07/14 11:27:02;;;;;;;3.33;1.10;;;28.00;99.90;;;;;;4950860;29;20434;-77
2023/07/14 11:29:38;;;;;;;1.50;0.77;;;28.40;99.90;;;;;;4951204;29;20035;-78
2023/07/14 11:32:13;;;;;;;4.35;1.25;;;28.70;99.90;;;;;;4949376;29;20042;-80
2023/07/14 11:34:48;;;;;;;2.03;0.85;;;28.40;99.90;;;;;;4949015;29;20051;-80
2023/07/14 11:37:33;;;;;;;4.05;0.93;;;28.50;94.40;;;;;;4949809;29;20031;-77
2023/07/14 11:40:01;;;;;;;2.13;0.75;;;28.00;97.70;;;;;;4948671;29;20046;-76
2023/07/14 11:42:31;;;;;;;1.52;0.98;;;27.90;99.90;;;;;;4950955;28;20039;-78
2023/07/14 11:44:59;;;;;;;;;;;28.30;96.10;;;;;;4935729;29;20035;-78
2023/07/14 11:47:37;;;;;;;4.28;1.20;;;28.30;99.90;;;;;;4952913;29;19910;-79
2023/07/14 11:50:18;;;;;;;0.85;0.60;;;28.40;99.90;;;;;;4951348;29;20039;-78
2023/07/14 11:53:10;;;;;;;1.75;0.65;;;29.00;94.00;;;;;;4948895;29;20475;-78
2023/07/14 11:55:40;;;;;;;4.00;0.70;;;29.50;93.00;;;;;;4952469;29;20090;-77
2023/07/14 11:58:27;;;;;;;3.13;0.73;;;29.00;93.40;;;;;;4952961;29;20059;-79
2023/07/14 12:01:03;;;;;;;3.83;0.73;;;28.50;97.60;;;;;;4921754;29;20475;-77
2023/07/14 12:03:35;;;;;;;2.70;0.90;;;28.40;97.30;;;;;;4951930;29;20540;-77
2023/07/14 12:06:19;;;;;;;1.67;0.70;;;28.10;95.70;;;;;;4954153;29;20046;-78
2023/07/14 12:09:03;;;;;;;1.27;0.80;;;27.90;99.90;;;;;;4937749;29;20040;-79
2023/07/14 12:11:43;;;;;;;2.25;1.20;;;27.70;99.90;;;;;;4953268;29;20406;-78
2023/07/14 12:14:35;;;;;;;2.65;0.68;;;27.60;99.90;;;;;;4953798;29;20027;-79
2023/07/14 12:17:04;;;;;;;3.08;0.73;;;27.60;99.90;;;;;;4944187;28;20043;-78
2023/07/14 12:19:51;;;;;;;5.95;1.00;;;27.60;99.90;;;;;;4946958;29;20047;-79
2023/07/14 12:22:38;;;;;;;3.33;0.85;;;27.70;99.90;;;;;;4952631;29;20043;-79
2023/07/14 12:25:15;;;;;;;4.75;1.65;;;28.10;99.90;;;;;;4953512;29;20517;-78
2023/07/14 12:27:47;;;;;;;3.20;1.13;;;27.90;95.30;;;;;;4948485;29;20062;-77
2023/07/14 12:30:17;;;;;;;2.17;0.90;;;28.00;99.90;;;;;;4953805;29;20035;-78
2023/07/14 12:32:43;;;;;;;4.07;1.60;;;28.00;99.90;;;;;;4954217;29;20039;-78
2023/07/14 12:35:15;;;;;;;2.20;0.70;;;28.00;99.90;;;;;;4951869;29;20246;-78
2023/07/14 12:37:42;;;;;;;1.42;0.90;;;28.10;97.20;;;;;;4952626;29;20359;-77
2023/07/14 12:40:18;;;;;;;1.90;0.60;;;27.90;93.60;;;;;;4951974;29;20042;-78
2023/07/14 12:42:45;;;;;;;4.47;0.80;;;27.90;99.90;;;;;;4954586;29;20043;-76
2023/07/14 12:45:13;;;;;;;2.15;1.10;;;28.00;99.90;;;;;;4952354;29;20031;-77
2023/07/14 12:47:43;;;;;;;2.95;1.00;;;27.80;98.30;;;;;;4953237;29;20197;-78
2023/07/14 12:50:15;;;;;;;3.10;0.85;;;27.80;99.90;;;;;;4953345;29;20220;-78
2023/07/14 12:52:44;;;;;;;3.20;0.70;;;27.90;99.90;;;;;;4951591;29;20034;-79
2023/07/14 12:55:19;;;;;;;2.22;1.00;;;28.00;99.90;;;;;;4949299;28;20036;-78
2023/07/14 12:57:49;;;;;;;1.35;0.93;;;28.00;98.20;;;;;;4952038;29;20035;-80
2023/07/14 13:00:25;;;;;;;1.75;0.73;;;27.90;98.00;;;;;;4954271;29;20031;-78
2023/07/14 13:02:53;;;;;;;3.35;0.80;;;27.90;99.90;;;;;;4953261;29;20467;-79
2023/07/14 13:05:22;;;;;;;2.90;0.98;;;27.90;99.90;;;;;;4950385;29;20035;-93
2023/07/14 13:07:54;;;;;;;2.33;1.08;;;27.70;99.60;;;;;;4953231;29;20062;-78
2023/07/14 13:10:20;;;;;;;2.00;1.13;;;27.50;99.90;;;;;;4943979;29;20666;-85